Wednesday, October 18, 2017, 3:41 AM EDT
Back to Local

KCKB, Harrison/marion Regional

Location: Bridgeport, WV, United States Lat: 39.3
Local Time: 3:41 AM EDT ( 7:41 GMT) Lon: -80.217
Time Zone: US/Eastern Elev: 1204 ft

Show me the last for .
Show Decoded

2017-10-18 02:53 METAR KCKB 180653Z AUTO 00000KT 10SM CLR 04/03 A3033 RMK AO2 SLP269 T00390028 =
2017-10-18 01:53 METAR KCKB 180553Z AUTO 00000KT 10SM CLR 04/03 A3033 RMK AO2 SLP268 T00440028
                 10111 20039 51003 =
2017-10-18 00:53 METAR KCKB 180453Z AUTO 00000KT 10SM CLR 05/03 A3033 RMK AO2 SLP267 T00500033
                 401720011 =
2017-10-17 23:53 METAR KCKB 180353Z AUTO 00000KT 10SM CLR 06/03 A3032 RMK AO2 SLP267 T00560033 =
2017-10-17 22:53 METAR KCKB 180253Z 00000KT 10SM CLR 07/04 A3032 RMK AO2 SLP266 T00670039 53009 =
2017-10-17 21:53 METAR KCKB 180153Z 00000KT 10SM CLR 08/04 A3031 RMK AO2 SLP265 T00780039 =
2017-10-17 20:53 METAR KCKB 180053Z 00000KT 10SM CLR 09/03 A3030 RMK AO2 SLP259 T00940033 =
2017-10-17 19:53 METAR KCKB 172353Z 00000KT 10SM CLR 11/03 A3029 RMK AO2 SLP258 T01110033 10172
                 20111 53001 =
2017-10-17 18:53 METAR KCKB 172253Z 19003KT 10SM CLR 14/02 A3028 RMK AO2 SLP254 T01390022 =
2017-10-17 17:53 METAR KCKB 172153Z 22005KT 10SM CLR 16/03 A3028 RMK AO2 SLP251 T01560028 =
2017-10-17 16:53 METAR KCKB 172053Z 00000KT 10SM CLR 17/02 A3029 RMK AO2 SLP253 T01670022 56015 =
2017-10-17 15:53 METAR KCKB 171953Z 00000KT 10SM CLR 16/00 A3030 RMK AO2 SLP256 T01610000 =
2017-10-17 14:53 METAR KCKB 171853Z VRB04KT 10SM CLR 16/02 A3031 RMK AO2 SLP260 T01560022 =
2017-10-17 13:53 METAR KCKB 171753Z 00000KT 10SM CLR 16/02 A3033 RMK AO2 SLP269 T01560017 10156
                 20017 58021 =
2017-10-17 12:53 METAR KCKB 171653Z 00000KT 10SM CLR 14/03 A3036 RMK AO2 SLP280 T01390028 =
2017-10-17 11:53 METAR KCKB 171553Z 00000KT 10SM CLR 12/03 A3039 RMK AO2 SLP288 T01220033 =
2017-10-17 10:53 METAR KCKB 171453Z VRB04KT 10SM CLR 09/06 A3040 RMK AO2 SLP292 T00890056 50008 =
2017-10-17 10:08 METAR KCKB 171408Z 00000KT 10SM FEW002 06/04 A3040 RMK AO2 T00560044 =
2017-10-17 09:53 METAR KCKB 171353Z 00000KT 6SM BR BKN002 05/04 A3040 RMK AO2 SLP296 T00500039 =
2017-10-17 09:51 METAR KCKB 171351Z 16003KT 2 1/2SM BR BKN002 05/04 A3040 RMK AO2 =
2017-10-17 09:03 METAR KCKB 171303Z 00000KT 1/4SM FG VV002 03/03 A3039 RMK AO2 T00330033 RVRNO =
2017-10-17 08:53 METAR KCKB 171253Z 00000KT M1/4SM FG VV001 03/03 A3039 RMK AO2 SLP293 T00330028
                 RVRNO =
2017-10-17 07:53 METAR KCKB 171153Z 00000KT M1/4SM FG VV001 02/01 A3037 RMK AO2 SLP286 70004
                 T00220011 10033 20011 51015 RVRNO =
2017-10-17 06:53 METAR KCKB 171053Z AUTO 00000KT 1/4SM FG VV001 01/00 A3036 RMK AO2 SLP282
                 T00110000 RVRNO $ =
2017-10-17 05:53 METAR KCKB 170953Z AUTO 00000KT 3/4SM BR VV001 01/01 A3035 RMK AO2 SLP276
                 T00110006 RVRNO $ =
2017-10-17 05:14 METAR KCKB 170914Z AUTO 00000KT 1/2SM FG VV001 02/01 A3034 RMK AO2 T00170006
                 RVRNO $ =
2017-10-17 05:06 METAR KCKB 170906Z AUTO 00000KT 1SM BR VV001 01/01 A3033 RMK AO2 T00110006 RVRNO
                 $ =
2017-10-17 04:53 METAR KCKB 170853Z AUTO 00000KT 1/2SM FG VV001 02/01 A3032 RMK AO2 SLP268
                 T00220011 53004 RVRNO $ =
2017-10-17 03:53 METAR KCKB 170753Z AUTO 00000KT 1/2SM FG VV001 02/01 A3031 RMK AO2 SLP265
                 T00220011 RVRNO =
2017-10-17 03:50 METAR KCKB 170750Z AUTO 00000KT 3/4SM BR VV002 02/01 A3031 RMK AO2 RVRNO =
2017-10-17 03:43 METAR KCKB 170743Z AUTO 00000KT 1SM BR VV002 02/01 A3031 RMK AO2 T00220011 RVRNO
                 =

Support USWX by starting your Amazon purchase here.